Time;durP1;ratioP1;P1;durP2;ratioP2;P2;SDS_P1;SDS_P2;PMS_P1;PMS_P2;Temp;Humidity;BMP_temperature;BMP_pressure;BME280_temperature;BME280_humidity;BME280_pressure;Samples;Min_cycle;Max_cycle;Signal;HPM_P1;HPM_P2
2024/02/02 00:01:26;;;;;;;77.95;49.88;;;;;;;;;;6263340;28;24434;-78
2024/02/02 00:04:33;;;;;;;75.03;49.13;;;;;;;;;;6269465;28;24414;-78
2024/02/02 00:07:34;;;;;;;80.55;50.55;;;;;;;;;;6270205;28;24499;-78
2024/02/02 00:10:38;;;;;;;74.32;49.30;;;;;;;;;;6267626;28;24466;-79
2024/02/02 00:13:40;;;;;;;83.85;50.92;;;;;;;;;;6262258;28;24863;-79
2024/02/02 00:16:41;;;;;;;79.90;50.97;;;;;;;;;;6266498;28;24475;-78
2024/02/02 00:19:43;;;;;;;77.53;49.60;;;;;;;;;;6266280;28;24427;-78
2024/02/02 00:22:44;;;;;;;79.60;49.03;;;;;;;;;;6266704;28;24668;-78
2024/02/02 00:25:48;;;;;;;77.68;50.17;;;;;;;;;;6267528;28;24439;-78
2024/02/02 00:28:49;;;;;;;76.93;48.70;;;;;;;;;;6265753;28;24867;-77
2024/02/02 00:31:51;;;;;;;76.35;49.33;;;;;;;;;;6265089;28;24856;-78
2024/02/02 00:34:52;;;;;;;78.10;50.35;;;;;;;;;;6265321;28;24498;-78
2024/02/02 00:37:54;;;;;;;79.20;49.38;;;;;;;;;;6269278;28;24723;-78
2024/02/02 00:40:57;;;;;;;73.97;48.28;;;;;;;;;;6265437;28;24629;-79
2024/02/02 00:43:58;;;;;;;78.10;48.70;;;;;;;;;;6267679;28;24524;-78
2024/02/02 00:47:00;;;;;;;74.85;48.30;;;;;;;;;;6270931;28;24426;-79
2024/02/02 00:50:04;;;;;;;74.23;48.03;;;;;;;;;;6268115;28;24844;-77
2024/02/02 00:53:05;;;;;;;73.38;46.85;;;;;;;;;;6268597;28;24853;-78
2024/02/02 00:56:09;;;;;;;72.87;47.10;;;;;;;;;;6269303;28;24423;-78
2024/02/02 00:59:10;;;;;;;77.57;47.90;;;;;;;;;;6263917;28;24424;-79
2024/02/02 01:02:12;;;;;;;73.78;45.83;;;;;;;;;;6266315;28;24416;-79
2024/02/02 01:05:14;;;;;;;78.17;47.77;;;;;;;;;;6267038;28;24592;-79
2024/02/02 01:08:16;;;;;;;72.75;44.95;;;;;;;;;;6265789;28;24465;-79
2024/02/02 01:11:19;;;;;;;72.63;45.42;;;;;;;;;;6268967;28;24518;-79
2024/02/02 01:14:21;;;;;;;73.35;44.92;;;;;;;;;;6266115;28;25026;-78
2024/02/02 01:17:23;;;;;;;69.33;44.27;;;;;;;;;;6265732;28;24489;-77
2024/02/02 01:20:24;;;;;;;66.85;42.88;;;;;;;;;;6267872;28;24424;-78
2024/02/02 01:23:26;;;;;;;69.03;44.03;;;;;;;;;;6267847;28;24592;-78
2024/02/02 01:26:30;;;;;;;71.30;43.25;;;;;;;;;;6265693;28;24424;-78
2024/02/02 01:29:33;;;;;;;71.07;43.58;;;;;;;;;;6266326;28;24521;-77
2024/02/02 01:32:35;;;;;;;66.85;42.90;;;;;;;;;;6268192;28;24499;-78
2024/02/02 01:35:36;;;;;;;69.90;43.30;;;;;;;;;;6266078;28;24423;-77
2024/02/02 01:38:38;;;;;;;67.07;42.67;;;;;;;;;;6268226;28;24805;-76
2024/02/02 01:41:41;;;;;;;67.90;42.40;;;;;;;;;;6264571;28;24424;-76
2024/02/02 01:44:43;;;;;;;71.00;42.70;;;;;;;;;;6263020;28;24615;-75
2024/02/02 01:47:44;;;;;;;67.93;42.90;;;;;;;;;;6266084;28;24492;-75
2024/02/02 01:50:46;;;;;;;72.80;43.70;;;;;;;;;;6267686;28;24427;-75
2024/02/02 01:53:48;;;;;;;68.88;42.78;;;;;;;;;;6264227;28;24438;-75
2024/02/02 01:56:51;;;;;;;71.03;44.05;;;;;;;;;;6265658;28;24431;-73
2024/02/02 01:59:53;;;;;;;68.80;43.78;;;;;;;;;;6262736;28;24420;-74
2024/02/02 02:02:55;;;;;;;69.40;42.80;;;;;;;;;;6265895;28;24550;-72
2024/02/02 02:05:56;;;;;;;67.77;42.27;;;;;;;;;;6267127;28;24476;-74
2024/02/02 02:08:58;;;;;;;72.43;43.70;;;;;;;;;;6264930;28;24424;-74
2024/02/02 02:12:01;;;;;;;69.72;42.95;;;;;;;;;;6266662;28;24816;-74
2024/02/02 02:15:03;;;;;;;71.28;44.58;;;;;;;;;;6271236;28;24932;-74
2024/02/02 02:18:05;;;;;;;73.38;43.47;;;;;;;;;;6271227;28;24616;-74
2024/02/02 02:24:36;;;;;;;67.67;43.00;;;;;;;;;;6320828;27;24418;-74
2024/02/02 02:27:38;;;;;;;66.53;42.67;;;;;;;;;;6263910;28;24431;-74
2024/02/02 02:30:40;;;;;;;70.82;43.15;;;;;;;;;;6261582;28;24859;-74
2024/02/02 02:33:42;;;;;;;69.03;43.75;;;;;;;;;;6264085;28;24656;-74
2024/02/02 02:36:43;;;;;;;67.43;42.92;;;;;;;;;;6263256;28;24432;-74
2024/02/02 02:39:46;;;;;;;66.85;42.08;;;;;;;;;;6263573;28;24769;-74
2024/02/02 02:42:49;;;;;;;68.57;43.63;;;;;;;;;;6262376;28;24420;-74
2024/02/02 02:45:51;;;;;;;69.28;42.30;;;;;;;;;;6260999;28;24427;-74
2024/02/02 02:48:52;;;;;;;66.53;42.67;;;;;;;;;;6263053;28;25052;-74
2024/02/02 02:51:54;;;;;;;69.57;43.05;;;;;;;;;;6263559;28;24431;-74
2024/02/02 02:54:57;;;;;;;66.25;42.67;;;;;;;;;;6264267;28;24424;-74
2024/02/02 02:57:59;;;;;;;68.95;42.88;;;;;;;;;;6288292;28;24420;-75
2024/02/02 03:01:00;;;;;;;70.72;43.78;;;;;;;;;;6261934;28;24989;-74
2024/02/02 03:04:02;;;;;;;66.65;43.25;;;;;;;;;;6261727;28;24793;-74
2024/02/02 03:07:04;;;;;;;69.43;43.50;;;;;;;;;;6287470;28;24438;-73
2024/02/02 03:10:08;;;;;;;68.57;42.70;;;;;;;;;;6288264;28;24442;-74
2024/02/02 03:13:10;;;;;;;69.20;43.90;;;;;;;;;;6283161;28;24832;-74
2024/02/02 03:16:12;;;;;;;66.85;43.72;;;;;;;;;;6261599;28;24436;-74
2024/02/02 03:19:17;;;;;;;70.70;44.10;;;;;;;;;;6267204;28;24894;-74
2024/02/02 03:22:18;;;;;;;69.90;44.40;;;;;;;;;;6284473;28;24419;-74
2024/02/02 03:25:22;;;;;;;68.30;43.70;;;;;;;;;;6283999;28;24469;-75
2024/02/02 03:28:23;;;;;;;69.15;43.85;;;;;;;;;;6280897;28;24847;-74
2024/02/02 03:31:25;;;;;;;72.70;44.67;;;;;;;;;;6286806;28;24419;-75
2024/02/02 03:34:26;;;;;;;72.57;44.88;;;;;;;;;;6276222;28;24403;-75
2024/02/02 03:37:28;;;;;;;71.20;45.20;;;;;;;;;;6264006;28;24418;-74
2024/02/02 03:40:31;;;;;;;72.30;45.65;;;;;;;;;;6268195;28;24418;-75
2024/02/02 03:43:32;;;;;;;69.85;45.65;;;;;;;;;;6268796;28;24419;-75
2024/02/02 03:46:37;;;;;;;73.60;46.45;;;;;;;;;;6267764;28;24430;-74
2024/02/02 03:49:38;;;;;;;78.55;48.58;;;;;;;;;;6253983;28;24428;-74
2024/02/02 03:52:40;;;;;;;72.47;46.03;;;;;;;;;;6264444;28;24420;-73
2024/02/02 03:55:43;;;;;;;74.17;47.03;;;;;;;;;;6268897;28;24434;-75
2024/02/02 03:58:45;;;;;;;73.35;45.65;;;;;;;;;;6271444;28;24712;-74
2024/02/02 04:01:46;;;;;;;72.32;45.10;;;;;;;;;;6266816;28;24418;-74
2024/02/02 04:04:48;;;;;;;73.65;46.15;;;;;;;;;;6266343;28;24813;-73
2024/02/02 04:07:49;;;;;;;69.22;45.75;;;;;;;;;;6266362;28;24485;-73
2024/02/02 04:10:53;;;;;;;73.90;45.67;;;;;;;;;;6265357;28;24649;-73
2024/02/02 04:13:54;;;;;;;73.88;45.00;;;;;;;;;;6265580;28;24427;-74
2024/02/02 04:16:56;;;;;;;70.97;45.60;;;;;;;;;;6260809;28;24438;-74
2024/02/02 04:19:58;;;;;;;69.95;45.40;;;;;;;;;;6246022;28;24816;-74
2024/02/02 04:23:01;;;;;;;68.13;43.55;;;;;;;;;;6263138;28;24432;-74
2024/02/02 04:26:04;;;;;;;67.87;44.30;;;;;;;;;;6265519;28;24420;-74
2024/02/02 04:29:06;;;;;;;68.93;44.03;;;;;;;;;;6265489;28;24491;-74
2024/02/02 04:32:07;;;;;;;72.03;45.15;;;;;;;;;;6266781;28;24423;-74
2024/02/02 04:35:09;;;;;;;71.82;44.17;;;;;;;;;;6256493;28;24904;-74
2024/02/02 04:38:10;;;;;;;77.05;47.25;;;;;;;;;;6252664;28;24504;-74
2024/02/02 04:41:13;;;;;;;77.47;48.03;;;;;;;;;;6266161;28;24415;-74
2024/02/02 04:44:15;;;;;;;73.40;45.60;;;;;;;;;;6262102;28;24423;-74
2024/02/02 04:47:17;;;;;;;72.55;44.63;;;;;;;;;;6264671;28;24428;-75
2024/02/02 04:50:19;;;;;;;67.70;43.05;;;;;;;;;;6264946;28;24704;-74
2024/02/02 04:53:20;;;;;;;69.73;44.67;;;;;;;;;;6264167;28;24832;-74
2024/02/02 04:56:24;;;;;;;68.40;43.20;;;;;;;;;;6267216;28;24417;-73
2024/02/02 04:59:25;;;;;;;70.38;43.78;;;;;;;;;;6265346;28;24427;-73
2024/02/02 05:02:27;;;;;;;70.03;43.83;;;;;;;;;;6264429;28;24876;-74
2024/02/02 05:05:28;;;;;;;71.17;42.77;;;;;;;;;;6263753;28;24511;-74
2024/02/02 05:08:30;;;;;;;69.95;43.72;;;;;;;;;;6252088;28;24464;-74
2024/02/02 05:11:33;;;;;;;67.88;44.03;;;;;;;;;;6250861;28;24512;-74
2024/02/02 05:14:35;;;;;;;68.95;42.60;;;;;;;;;;6265253;28;24459;-74
2024/02/02 05:17:36;;;;;;;75.55;46.03;;;;;;;;;;6261540;28;24444;-74
2024/02/02 05:20:39;;;;;;;70.20;44.67;;;;;;;;;;6264598;28;24506;-74
2024/02/02 05:23:40;;;;;;;68.18;44.03;;;;;;;;;;6260391;28;24508;-74
2024/02/02 05:26:44;;;;;;;67.43;42.55;;;;;;;;;;6267157;28;24470;-74
2024/02/02 05:29:48;;;;;;;76.07;45.95;;;;;;;;;;6264992;28;24443;-74
2024/02/02 05:32:50;;;;;;;74.35;45.75;;;;;;;;;;6262549;28;24428;-74
2024/02/02 05:35:51;;;;;;;74.97;45.65;;;;;;;;;;6266241;28;24420;-74
2024/02/02 05:38:53;;;;;;;75.78;45.55;;;;;;;;;;6269849;28;24424;-74
2024/02/02 05:41:57;;;;;;;73.32;44.33;;;;;;;;;;6262987;28;24427;-74
2024/02/02 05:44:59;;;;;;;73.03;43.53;;;;;;;;;;6265114;28;24570;-74
2024/02/02 05:48:00;;;;;;;78.40;46.55;;;;;;;;;;6264057;28;24485;-74
2024/02/02 05:51:01;;;;;;;76.70;46.37;;;;;;;;;;6263619;28;24538;-74
2024/02/02 05:54:03;;;;;;;74.17;45.93;;;;;;;;;;6264296;28;24500;-74
2024/02/02 05:57:06;;;;;;;71.27;44.10;;;;;;;;;;6263866;28;24431;-74
2024/02/02 06:00:10;;;;;;;69.72;44.05;;;;;;;;;;6261219;28;24520;-74
2024/02/02 06:03:12;;;;;;;76.65;46.78;;;;;;;;;;6262775;28;24538;-74
2024/02/02 06:06:14;;;;;;;77.43;46.72;;;;;;;;;;6265315;28;24408;-74
2024/02/02 06:09:15;;;;;;;78.03;47.35;;;;;;;;;;6245849;28;24434;-74
2024/02/02 06:12:18;;;;;;;76.97;47.63;;;;;;;;;;6262686;28;24458;-74
2024/02/02 06:15:20;;;;;;;77.43;47.67;;;;;;;;;;6259872;28;24435;-75
2024/02/02 06:18:21;;;;;;;83.03;49.60;;;;;;;;;;6263203;28;25003;-75
2024/02/02 06:21:23;;;;;;;82.72;47.58;;;;;;;;;;6263644;28;24443;-74
2024/02/02 06:24:25;;;;;;;72.68;45.92;;;;;;;;;;6263250;28;24415;-74
2024/02/02 06:27:30;;;;;;;77.97;47.17;;;;;;;;;;6260450;28;24473;-75
2024/02/02 06:30:32;;;;;;;80.93;48.75;;;;;;;;;;6264234;28;24478;-74
2024/02/02 06:33:34;;;;;;;82.03;48.95;;;;;;;;;;6263158;28;24435;-74
2024/02/02 06:36:35;;;;;;;79.95;47.92;;;;;;;;;;6263727;28;25018;-74
2024/02/02 06:39:39;;;;;;;78.57;47.75;;;;;;;;;;6265675;28;24420;-74
2024/02/02 06:42:42;;;;;;;78.03;47.40;;;;;;;;;;6264998;28;24858;-74
2024/02/02 06:45:43;;;;;;;79.85;48.80;;;;;;;;;;6264021;28;24782;-74
2024/02/02 06:48:47;;;;;;;79.43;48.45;;;;;;;;;;6263256;28;24431;-74
2024/02/02 06:51:49;;;;;;;76.68;47.60;;;;;;;;;;6261939;28;24458;-72
2024/02/02 06:54:51;;;;;;;74.55;47.20;;;;;;;;;;6263094;28;24433;-74
2024/02/02 06:57:54;;;;;;;77.80;48.22;;;;;;;;;;6261972;28;24447;-74
2024/02/02 07:00:56;;;;;;;75.50;47.60;;;;;;;;;;6263492;28;24439;-74
2024/02/02 07:03:58;;;;;;;79.18;48.10;;;;;;;;;;6264705;28;24420;-74
2024/02/02 07:07:01;;;;;;;71.60;46.40;;;;;;;;;;6262057;28;24435;-74
2024/02/02 07:10:04;;;;;;;72.57;46.55;;;;;;;;;;6269533;28;24435;-74
2024/02/02 07:13:08;;;;;;;77.67;46.93;;;;;;;;;;6267827;28;24489;-75
2024/02/02 07:16:13;;;;;;;70.88;44.60;;;;;;;;;;6268403;28;24824;-74
2024/02/02 07:19:27;;;;;;;68.97;43.43;;;;;;;;;;6264323;28;24473;-73
2024/02/02 07:22:39;;;;;;;69.83;43.97;;;;;;;;;;6265874;28;24514;-75
2024/02/02 07:25:42;;;;;;;75.93;46.90;;;;;;;;;;6266300;28;24431;-75
2024/02/02 07:28:48;;;;;;;75.07;49.10;;;;;;;;;;6262861;28;24634;-74
2024/02/02 07:31:51;;;;;;;80.80;50.35;;;;;;;;;;6268096;28;24426;-74
2024/02/02 07:34:53;;;;;;;75.70;48.53;;;;;;;;;;6268918;28;24412;-74
2024/02/02 07:37:54;;;;;;;75.60;48.13;;;;;;;;;;6264551;28;24481;-75
2024/02/02 07:41:01;;;;;;;75.03;48.22;;;;;;;;;;6264814;28;24431;-75
2024/02/02 07:44:04;;;;;;;71.80;46.78;;;;;;;;;;6265910;28;24434;-74
2024/02/02 07:47:06;;;;;;;68.65;45.70;;;;;;;;;;6266169;28;24657;-75
2024/02/02 07:50:08;;;;;;;71.82;46.10;;;;;;;;;;6267220;28;24439;-75
2024/02/02 07:53:09;;;;;;;67.22;44.10;;;;;;;;;;6269178;28;24439;-75
2024/02/02 07:56:11;;;;;;;66.20;43.95;;;;;;;;;;6265532;28;24827;-75
2024/02/02 07:59:14;;;;;;;62.33;42.65;;;;;;;;;;6260604;28;24439;-74
2024/02/02 08:02:17;;;;;;;69.50;46.05;;;;;;;;;;6255314;28;24420;-74
2024/02/02 08:05:18;;;;;;;66.75;43.63;;;;;;;;;;6257087;28;24633;-73
2024/02/02 08:08:20;;;;;;;64.25;42.58;;;;;;;;;;6252429;28;24424;-74
2024/02/02 08:11:24;;;;;;;59.22;40.35;;;;;;;;;;6267203;28;24824;-73
2024/02/02 08:14:28;;;;;;;64.10;41.70;;;;;;;;;;6266888;28;24428;-74
2024/02/02 08:17:29;;;;;;;60.22;40.03;;;;;;;;;;6265361;28;24427;-74
2024/02/02 08:20:31;;;;;;;60.05;39.85;;;;;;;;;;6266471;28;24463;-74
2024/02/02 08:23:33;;;;;;;57.75;39.92;;;;;;;;;;6264787;28;24427;-75
2024/02/02 08:26:34;;;;;;;61.92;40.38;;;;;;;;;;6252487;28;24697;-74
2024/02/02 08:29:38;;;;;;;55.15;38.97;;;;;;;;;;6265281;28;24473;-74
2024/02/02 08:32:39;;;;;;;60.97;39.67;;;;;;;;;;6266078;28;24432;-73
2024/02/02 08:35:41;;;;;;;58.88;39.10;;;;;;;;;;6264137;28;24649;-74
2024/02/02 08:38:43;;;;;;;58.88;38.47;;;;;;;;;;6263043;28;24438;-75
2024/02/02 08:41:44;;;;;;;57.03;37.47;;;;;;;;;;6264211;28;24434;-75
2024/02/02 08:44:48;;;;;;;63.40;43.72;;;;;;;;;;6268439;28;24416;-74
2024/02/02 08:47:49;;;;;;;97.85;62.15;;;;;;;;;;6264701;28;24446;-74
2024/02/02 08:50:51;;;;;;;74.70;49.67;;;;;;;;;;6265698;28;24557;-74
2024/02/02 08:53:57;;;;;;;59.28;42.00;;;;;;;;;;6248129;28;24673;-75
2024/02/02 08:57:10;;;;;;;56.97;39.60;;;;;;;;;;6258557;28;24431;-75
2024/02/02 09:00:15;;;;;;;62.13;43.55;;;;;;;;;;6264806;28;24816;-74
2024/02/02 09:03:24;;;;;;;60.17;42.55;;;;;;;;;;6264407;28;24428;-74
2024/02/02 09:06:38;;;;;;;59.72;43.45;;;;;;;;;;6262318;28;24419;-74
2024/02/02 09:09:40;;;;;;;56.80;41.25;;;;;;;;;;6264127;28;24423;-74
2024/02/02 09:12:44;;;;;;;56.25;41.40;;;;;;;;;;6247325;28;24434;-75
2024/02/02 09:15:48;;;;;;;59.17;42.03;;;;;;;;;;6262339;28;24436;-74
2024/02/02 09:18:54;;;;;;;57.00;42.13;;;;;;;;;;6265124;28;24829;-75
2024/02/02 09:21:57;;;;;;;58.47;42.37;;;;;;;;;;6264831;28;24431;-75
2024/02/02 09:24:58;;;;;;;60.75;43.03;;;;;;;;;;6266058;28;24430;-74
2024/02/02 09:28:00;;;;;;;59.33;43.33;;;;;;;;;;6264958;28;24434;-74
2024/02/02 09:31:03;;;;;;;56.60;42.10;;;;;;;;;;6262184;28;24675;-75
2024/02/02 09:34:06;;;;;;;57.60;41.65;;;;;;;;;;6261803;28;24433;-75
2024/02/02 09:37:09;;;;;;;55.93;40.37;;;;;;;;;;6262666;28;24423;-75
2024/02/02 09:40:22;;;;;;;58.58;41.95;;;;;;;;;;6262783;28;24442;-73
2024/02/02 09:43:27;;;;;;;57.85;42.50;;;;;;;;;;6262131;28;24415;-74
2024/02/02 09:46:46;;;;;;;56.85;41.05;;;;;;;;;;6264948;28;24431;-74
2024/02/02 09:49:51;;;;;;;54.83;40.35;;;;;;;;;;6263620;28;24427;-74
2024/02/02 09:53:07;;;;;;;67.97;41.58;;;;;;;;;;6261653;28;24797;-74
2024/02/02 09:56:14;;;;;;;54.55;39.33;;;;;;;;;;6266485;28;24631;-74
2024/02/02 09:59:19;;;;;;;49.03;37.45;;;;;;;;;;6263523;28;24427;-74
2024/02/02 10:02:32;;;;;;;49.67;37.95;;;;;;;;;;6262125;28;24435;-74
2024/02/02 10:05:38;;;;;;;48.20;36.22;;;;;;;;;;6262176;28;24423;-75
2024/02/02 10:08:47;;;;;;;47.03;36.47;;;;;;;;;;6266265;28;24419;-75
2024/02/02 10:12:03;;;;;;;53.73;39.23;;;;;;;;;;6265452;28;24422;-75
2024/02/02 10:15:22;;;;;;;54.58;40.20;;;;;;;;;;6262679;28;24432;-75
2024/02/02 10:18:30;;;;;;;48.65;37.22;;;;;;;;;;6262017;28;24509;-75
2024/02/02 10:21:39;;;;;;;48.45;35.97;;;;;;;;;;6262953;28;24649;-75
2024/02/02 10:24:53;;;;;;;45.35;35.33;;;;;;;;;;6262953;28;24813;-75
2024/02/02 10:28:04;;;;;;;69.03;50.47;;;;;;;;;;6266142;28;24832;-75
2024/02/02 10:31:11;;;;;;;114.38;78.05;;;;;;;;;;6263293;28;24461;-75
2024/02/02 10:34:21;;;;;;;93.32;64.32;;;;;;;;;;6261748;28;24435;-73
2024/02/02 10:37:32;;;;;;;103.07;69.28;;;;;;;;;;6265196;28;24519;-74
2024/02/02 10:40:42;;;;;;;109.65;73.15;;;;;;;;;;6265672;28;24486;-75
2024/02/02 10:43:50;;;;;;;71.05;49.30;;;;;;;;;;6265165;28;24427;-75
2024/02/02 10:46:58;;;;;;;58.10;41.35;;;;;;;;;;6268729;28;24436;-74
2024/02/02 10:50:07;;;;;;;54.72;39.10;;;;;;;;;;6267872;28;24447;-74
2024/02/02 10:53:14;;;;;;;58.15;41.47;;;;;;;;;;6269260;28;24431;-74
2024/02/02 10:56:22;;;;;;;56.45;40.20;;;;;;;;;;6267675;28;24474;-78
2024/02/02 10:59:31;;;;;;;51.15;37.20;;;;;;;;;;6267953;28;24506;-78
2024/02/02 11:02:37;;;;;;;61.67;40.58;;;;;;;;;;6268140;28;24431;-78
2024/02/02 11:05:41;;;;;;;55.63;38.47;;;;;;;;;;6271270;28;24416;-78
2024/02/02 11:08:47;;;;;;;54.33;38.13;;;;;;;;;;6270157;28;24473;-78
2024/02/02 11:11:53;;;;;;;55.42;39.30;;;;;;;;;;6268519;28;24878;-78
2024/02/02 11:15:01;;;;;;;59.13;39.72;;;;;;;;;;6267033;28;24450;-78
2024/02/02 11:18:07;;;;;;;61.00;41.37;;;;;;;;;;6275296;28;24427;-78
2024/02/02 11:21:18;;;;;;;54.60;38.57;;;;;;;;;;6266084;28;24431;-79
2024/02/02 11:24:22;;;;;;;53.22;36.42;;;;;;;;;;6264687;28;24809;-79
2024/02/02 11:27:25;;;;;;;52.83;37.17;;;;;;;;;;6267027;28;24430;-78
2024/02/02 11:30:31;;;;;;;57.95;38.80;;;;;;;;;;6266801;28;24428;-78
2024/02/02 11:34:02;;;;;;;56.97;38.95;;;;;;;;;;6264824;28;24519;-79
2024/02/02 11:37:14;;;;;;;53.53;38.15;;;;;;;;;;6266191;28;24871;-78
2024/02/02 11:40:16;;;;;;;56.97;39.63;;;;;;;;;;6267745;28;24427;-79
2024/02/02 11:43:17;;;;;;;51.30;36.30;;;;;;;;;;6267402;28;24522;-78
2024/02/02 11:46:23;;;;;;;53.00;37.58;;;;;;;;;;6250157;28;24415;-79
2024/02/02 11:49:26;;;;;;;49.93;36.17;;;;;;;;;;6264665;28;24811;-79
2024/02/02 11:52:31;;;;;;;48.28;35.30;;;;;;;;;;6269273;28;24423;-79
2024/02/02 11:55:34;;;;;;;47.47;34.22;;;;;;;;;;6269085;28;24427;-79
2024/02/02 11:58:37;;;;;;;50.72;35.75;;;;;;;;;;6266918;28;24773;-79
2024/02/02 12:01:44;;;;;;;48.20;34.28;;;;;;;;;;6266111;28;24497;-79
2024/02/02 12:04:48;;;;;;;45.75;32.85;;;;;;;;;;6264991;28;24423;-79
2024/02/02 12:07:53;;;;;;;44.03;32.85;;;;;;;;;;6265420;28;24422;-75
2024/02/02 12:10:56;;;;;;;43.30;31.20;;;;;;;;;;6264251;28;24432;-75
2024/02/02 12:13:59;;;;;;;41.95;31.17;;;;;;;;;;6267611;28;24435;-74
2024/02/02 12:17:00;;;;;;;42.80;31.27;;;;;;;;;;6263879;28;24482;-74
2024/02/02 12:20:07;;;;;;;45.85;32.38;;;;;;;;;;6265157;28;24851;-74
2024/02/02 12:23:10;;;;;;;43.00;31.50;;;;;;;;;;6263091;28;24836;-74
2024/02/02 12:26:12;;;;;;;42.50;30.25;;;;;;;;;;6265847;28;24427;-75
2024/02/02 12:29:14;;;;;;;45.23;32.43;;;;;;;;;;6264980;28;24435;-75
2024/02/02 12:32:16;;;;;;;43.47;31.88;;;;;;;;;;6265243;28;24915;-74
2024/02/02 12:35:17;;;;;;;45.47;32.50;;;;;;;;;;6266566;28;24439;-75
2024/02/02 12:38:22;;;;;;;44.00;31.02;;;;;;;;;;6265668;28;24797;-73
2024/02/02 12:41:24;;;;;;;43.08;31.48;;;;;;;;;;6261358;28;24439;-75
2024/02/02 12:44:26;;;;;;;43.92;32.30;;;;;;;;;;6265153;28;24785;-74
2024/02/02 12:47:29;;;;;;;42.47;30.92;;;;;;;;;;6266512;28;24797;-75
2024/02/02 12:50:31;;;;;;;43.75;32.13;;;;;;;;;;6262263;28;24419;-75
2024/02/02 12:53:35;;;;;;;52.28;36.72;;;;;;;;;;6264274;28;24459;-75
2024/02/02 12:56:37;;;;;;;63.95;44.95;;;;;;;;;;6264966;28;24514;-75
2024/02/02 12:59:38;;;;;;;54.05;37.83;;;;;;;;;;6266215;28;24490;-75
2024/02/02 13:02:40;;;;;;;43.13;31.38;;;;;;;;;;6266003;28;24765;-75
2024/02/02 13:05:42;;;;;;;39.05;29.40;;;;;;;;;;6260970;28;24539;-75
2024/02/02 13:08:47;;;;;;;39.67;28.33;;;;;;;;;;6263941;28;24459;-76
2024/02/02 13:11:49;;;;;;;37.38;27.88;;;;;;;;;;6268589;28;24506;-75
2024/02/02 13:14:52;;;;;;;35.53;26.38;;;;;;;;;;6265062;28;24501;-75
2024/02/02 13:18:02;;;;;;;31.52;24.13;;;;;;;;;;6266116;28;24431;-75
2024/02/02 13:21:05;;;;;;;33.15;24.50;;;;;;;;;;6264025;28;24447;-75
2024/02/02 13:24:18;;;;;;;30.88;23.17;;;;;;;;;;6260950;28;24490;-75
2024/02/02 13:27:20;;;;;;;28.63;21.65;;;;;;;;;;6264812;28;24465;-75
2024/02/02 13:30:26;;;;;;;63.47;43.00;;;;;;;;;;6264037;28;24880;-75
2024/02/02 13:33:28;;;;;;;56.57;39.23;;;;;;;;;;6262812;28;24423;-75
2024/02/02 13:36:30;;;;;;;29.23;22.63;;;;;;;;;;6263248;28;24509;-75
2024/02/02 13:39:34;;;;;;;26.38;19.92;;;;;;;;;;6264196;28;24418;-77
2024/02/02 13:42:39;;;;;;;27.35;20.85;;;;;;;;;;6266984;28;24419;-75
2024/02/02 13:45:42;;;;;;;28.90;21.38;;;;;;;;;;6266579;28;24528;-75
2024/02/02 13:48:47;;;;;;;28.50;21.17;;;;;;;;;;6262845;28;24418;-75
2024/02/02 13:51:49;;;;;;;28.23;21.42;;;;;;;;;;6262704;28;24663;-76
2024/02/02 13:54:55;;;;;;;30.52;24.85;;;;;;;;;;6261496;28;24621;-75
2024/02/02 13:57:57;;;;;;;37.42;29.17;;;;;;;;;;6266586;28;24423;-74
2024/02/02 14:00:58;;;;;;;35.97;27.67;;;;;;;;;;6265466;28;25030;-73
2024/02/02 14:04:00;;;;;;;41.38;29.77;;;;;;;;;;6264150;28;24472;-74
2024/02/02 14:07:01;;;;;;;37.00;28.73;;;;;;;;;;6264301;28;24431;-74
2024/02/02 14:10:06;;;;;;;34.58;26.33;;;;;;;;;;6264777;28;24424;-78
2024/02/02 14:13:12;;;;;;;37.22;27.48;;;;;;;;;;6264252;28;24622;-75
2024/02/02 14:16:16;;;;;;;32.00;26.23;;;;;;;;;;6263500;28;24423;-74
2024/02/02 14:19:19;;;;;;;35.15;26.60;;;;;;;;;;6263516;28;24430;-74
2024/02/02 14:22:25;;;;;;;35.65;27.27;;;;;;;;;;6261485;28;24943;-74
2024/02/02 14:25:29;;;;;;;33.88;26.40;;;;;;;;;;6263653;28;24793;-74
2024/02/02 14:28:30;;;;;;;36.97;28.63;;;;;;;;;;6261985;28;24435;-75
2024/02/02 14:31:32;;;;;;;35.33;27.65;;;;;;;;;;6263229;28;24424;-75
2024/02/02 14:34:34;;;;;;;32.17;25.23;;;;;;;;;;6264015;28;24434;-74
2024/02/02 14:37:35;;;;;;;31.63;25.58;;;;;;;;;;6260656;28;24468;-74
2024/02/02 14:40:39;;;;;;;37.88;28.00;;;;;;;;;;6261682;28;24416;-75
2024/02/02 14:43:41;;;;;;;38.05;28.20;;;;;;;;;;6264763;28;24465;-73
2024/02/02 14:46:42;;;;;;;36.17;27.15;;;;;;;;;;6261499;28;24506;-74
2024/02/02 14:49:44;;;;;;;39.45;29.60;;;;;;;;;;6262988;28;24439;-74
2024/02/02 14:52:46;;;;;;;40.58;31.08;;;;;;;;;;6262850;28;24515;-74
2024/02/02 14:55:49;;;;;;;39.13;29.98;;;;;;;;;;6251296;28;24524;-75
2024/02/02 14:58:52;;;;;;;37.70;28.80;;;;;;;;;;6265008;28;24808;-75
2024/02/02 15:01:54;;;;;;;40.88;30.17;;;;;;;;;;6261536;28;24458;-73
2024/02/02 15:04:56;;;;;;;42.53;31.25;;;;;;;;;;6262667;28;24438;-75
2024/02/02 15:07:58;;;;;;;38.55;28.95;;;;;;;;;;6251094;28;24595;-74
2024/02/02 15:11:01;;;;;;;41.33;30.02;;;;;;;;;;6261638;28;24431;-75
2024/02/02 15:14:03;;;;;;;41.67;30.85;;;;;;;;;;6263471;28;24454;-75
2024/02/02 15:17:04;;;;;;;44.50;32.60;;;;;;;;;;6262973;28;24423;-75
2024/02/02 15:20:09;;;;;;;53.55;37.53;;;;;;;;;;6263180;28;24867;-75
2024/02/02 15:23:11;;;;;;;52.03;34.83;;;;;;;;;;6264233;28;24661;-75
2024/02/02 15:26:15;;;;;;;77.63;48.42;;;;;;;;;;6263402;28;24621;-75
2024/02/02 15:29:17;;;;;;;50.85;35.65;;;;;;;;;;6260103;28;25062;-75
2024/02/02 15:32:19;;;;;;;39.15;27.50;;;;;;;;;;6265475;28;24430;-75
2024/02/02 15:35:20;;;;;;;36.43;25.93;;;;;;;;;;6264114;28;25036;-76
2024/02/02 15:38:22;;;;;;;38.63;27.13;;;;;;;;;;6267947;28;24823;-75
2024/02/02 15:41:25;;;;;;;36.00;26.42;;;;;;;;;;6267809;28;24425;-75
2024/02/02 15:44:27;;;;;;;38.13;28.23;;;;;;;;;;6266908;28;24489;-75
2024/02/02 15:47:28;;;;;;;36.57;26.80;;;;;;;;;;6267919;28;24580;-75
2024/02/02 15:50:30;;;;;;;39.65;29.13;;;;;;;;;;6267070;28;24442;-75
2024/02/02 15:53:31;;;;;;;36.85;27.50;;;;;;;;;;6266086;28;24461;-75
2024/02/02 15:56:34;;;;;;;36.90;27.55;;;;;;;;;;6270861;28;24785;-75
2024/02/02 15:59:40;;;;;;;39.15;27.90;;;;;;;;;;6267326;28;24423;-74
2024/02/02 16:02:41;;;;;;;35.83;27.40;;;;;;;;;;6263935;28;24430;-74
2024/02/02 16:05:43;;;;;;;37.50;27.58;;;;;;;;;;6264106;28;24781;-74
2024/02/02 16:08:45;;;;;;;38.28;26.83;;;;;;;;;;6268431;28;24462;-74
2024/02/02 16:11:49;;;;;;;40.83;27.60;;;;;;;;;;6265950;28;24526;-74
2024/02/02 16:14:50;;;;;;;38.58;27.27;;;;;;;;;;6265517;28;24427;-74
2024/02/02 16:17:52;;;;;;;38.22;27.73;;;;;;;;;;6265750;28;24453;-75
2024/02/02 16:20:54;;;;;;;38.67;27.85;;;;;;;;;;6264975;28;24427;-73
2024/02/02 16:23:56;;;;;;;38.00;27.70;;;;;;;;;;6267575;28;24432;-75
2024/02/02 16:27:00;;;;;;;36.38;25.83;;;;;;;;;;6268719;28;24415;-75
2024/02/02 16:30:03;;;;;;;35.83;26.57;;;;;;;;;;6265637;28;24427;-75
2024/02/02 16:33:05;;;;;;;35.65;26.30;;;;;;;;;;6264460;28;24851;-75
2024/02/02 16:36:09;;;;;;;36.92;25.95;;;;;;;;;;6265582;28;24427;-76
2024/02/02 16:39:12;;;;;;;36.10;26.33;;;;;;;;;;6266587;28;24440;-74
2024/02/02 16:42:15;;;;;;;38.90;27.95;;;;;;;;;;6265415;28;24463;-75
2024/02/02 16:45:16;;;;;;;37.33;26.90;;;;;;;;;;6265545;28;24422;-75
2024/02/02 16:48:21;;;;;;;39.72;28.58;;;;;;;;;;6266100;28;24497;-74
2024/02/02 16:51:22;;;;;;;40.53;27.63;;;;;;;;;;6261549;28;24521;-75
2024/02/02 16:54:26;;;;;;;38.03;27.20;;;;;;;;;;6265905;28;24433;-74
2024/02/02 16:57:29;;;;;;;42.47;27.95;;;;;;;;;;6265628;28;24471;-75
2024/02/02 17:00:31;;;;;;;37.33;26.90;;;;;;;;;;6263616;28;25351;-74
2024/02/02 17:03:34;;;;;;;39.03;27.13;;;;;;;;;;6263608;28;24468;-74
2024/02/02 17:06:39;;;;;;;40.83;28.17;;;;;;;;;;6262750;28;24698;-74
2024/02/02 17:09:44;;;;;;;39.75;27.80;;;;;;;;;;6264074;28;24830;-75
2024/02/02 17:12:47;;;;;;;37.88;26.92;;;;;;;;;;6261829;28;24420;-75
2024/02/02 17:15:49;;;;;;;37.13;26.73;;;;;;;;;;6260334;28;24431;-75
2024/02/02 17:18:51;;;;;;;38.10;25.48;;;;;;;;;;6262476;28;24622;-75
2024/02/02 17:21:52;;;;;;;37.58;26.02;;;;;;;;;;6264924;28;24431;-76
2024/02/02 17:24:54;;;;;;;38.47;26.08;;;;;;;;;;6262749;28;24423;-75
2024/02/02 17:27:57;;;;;;;39.55;26.17;;;;;;;;;;6261629;28;24439;-75
2024/02/02 17:30:59;;;;;;;41.35;27.45;;;;;;;;;;6262536;28;24426;-75
2024/02/02 17:34:01;;;;;;;42.17;27.08;;;;;;;;;;6260497;28;24680;-75
2024/02/02 17:37:03;;;;;;;40.25;26.67;;;;;;;;;;6271428;28;25025;-74
2024/02/02 17:40:05;;;;;;;43.42;29.25;;;;;;;;;;6263348;28;24481;-75
2024/02/02 17:43:08;;;;;;;43.38;28.55;;;;;;;;;;6261125;28;24502;-75
2024/02/02 17:46:12;;;;;;;39.72;26.75;;;;;;;;;;6263974;28;24424;-75
2024/02/02 17:49:14;;;;;;;40.25;25.02;;;;;;;;;;6265444;28;25077;-74